ADDS METAR Data INFO
IDs: Format: Raw Decoded Include TAF

Data at: 0104 UTC 21 Oct 2017

PATO 210053Z AUTO 00000KT 10SM SCT050 BKN060 OVC075 M03/M10 A2927 RMK AO2 SLP915 T10331100 TSNO
PATO 202353Z AUTO 00000KT 10SM CLR M04/M12 A2927 RMK AO2 SLP913 T10441122 11022 21067 58006 TSNO
PATO 202253Z AUTO 25003KT 10SM FEW050 M04/M12 A2928 RMK AO2 SLP917 T10391122 TSNO
PATO 202153Z AUTO VRB04KT 10SM CLR M03/M11 A2929 RMK AO2 SLP918 T10281111 TSNO
PATO 202053Z AUTO VRB06KT 10SM CLR M03/M11 A2929 RMK AO2 SLP918 T10331111 50002 TSNO
PATO 201953Z AUTO 28007KT 10SM CLR M04/M12 A2929 RMK AO2 SLP919 T10391117 TSNO
PATO 201853Z AUTO 30005KT 10SM CLR M04/M12 A2929 RMK AO2 SLP918 T10441117 TSNO
PATO 201753Z AUTO 30005KT 10SM CLR M07/M12 A2928 RMK AO2 SLP918 T10671117 11044 21072 53008 TSNO
PATO 201653Z AUTO 30005KT 10SM CLR M07/M12 A2928 RMK AO2 SLP915 T10721122 TSNO
PATO 201553Z AUTO 30005KT 10SM CLR M07/M12 A2927 RMK AO2 SLP912 T10671122 TSNO
PATO 201453Z AUTO 29006KT 10SM CLR M06/M12 A2926 RMK AO2 SLP909 T10611122 51007 TSNO
PATO 201353Z AUTO 29008KT 10SM CLR M06/M12 A2925 RMK AO2 SLP907 T10611122 TSNO
PATO 201253Z AUTO 28008KT 10SM CLR M06/M12 A2925 RMK AO2 SLP905 T10561117 TSNO
PATO 201153Z AUTO 28009G16KT 10SM CLR M04/M12 A2924 RMK AO2 SLP902 T10441117 11028 21044 52009 TSNO
PATO 201053Z AUTO 27008G15KT 10SM CLR M04/M11 A2923 RMK AO2 SLP900 T10441111 TSNO
PATO 200953Z AUTO 28008G16KT 10SM CLR M04/M12 A2922 RMK AO2 SLP896 T10391117 TSNO
PATO 200853Z AUTO 30008G19KT 10SM CLR M03/M12 A2921 RMK AO2 SLP893 T10331122 400171039 53007 TSNO
PATO 200753Z AUTO 29007KT 10SM CLR M03/M13 A2920 RMK AO2 SLP890 T10331128 TSNO
PATO 200653Z AUTO 28004KT 10SM CLR M03/M13 A2920 RMK AO2 SLP887 T10281133 TSNO
PATO 200553Z AUTO VRB06KT 10SM CLR M03/M13 A2919 RMK AO2 SLP886 T10281133 10000 21028 51005 TSNO
PATO 200453Z AUTO 28005KT 10SM CLR M03/M13 A2919 RMK AO2 SLP885 T10281133 TSNO
PATO 200353Z AUTO 27005KT 10SM CLR M02/M14 A2918 RMK AO2 SLP882 T10221139 TSNO
PATO 200253Z AUTO 29006KT 10SM CLR M02/M14 A2918 RMK AO2 SLP881 T10171139 52001 TSNO
PATO 200153Z AUTO 28008G20KT 10SM CLR M01/M15 A2918 RMK AO2 SLP880 T10061150 TSNO
PATO 200053Z AUTO 28008G18KT 10SM CLR M01/M14 A2918 RMK AO2 PK WND 28027/2356 SLP880 T10061144 TSNO
PATO 192353Z AUTO 28011G22KT 230V310 10SM CLR 00/M14 A2917 RMK AO2 PK WND 29026/2255 SLP880 T00001139 10017 21017 58003 TSNO
PATO 192253Z AUTO 30010G22KT 10SM CLR 00/M13 A2918 RMK AO2 PK WND 31026/2214 SLP881 T00001133 TSNO
PATO 192153Z AUTO 30011G21KT 270V330 10SM CLR 01/M13 A2918 RMK AO2 SLP883 T00111128 TSNO
PATO 192053Z AUTO 30009G23KT 260V340 10SM CLR 01/M13 A2918 RMK AO2 SLP883 T00111128 50001 TSNO
PATO 191953Z AUTO 29010G24KT 10SM CLR 00/M12 A2919 RMK AO2 SLP884 T00001117 TSNO
PATO 191853Z AUTO 29008G22KT 260V320 10SM CLR M01/M12 A2919 RMK AO2 SLP885 T10061117 TSNO
PATO 191753Z AUTO 30006G22KT 10SM CLR M02/M12 A2918 RMK AO2 SLP881 T10171117 11017 21022 53001 TSNO
PATO 191653Z AUTO 28005KT 10SM CLR M02/M11 A2918 RMK AO2 SLP881 T10221106 TSNO
PATO 191553Z AUTO 28008G17KT 220V310 10SM CLR M02/M11 A2918 RMK AO2 SLP880 T10221106 TSNO
PATO 191453Z AUTO 28009G16KT 240V310 10SM CLR M02/M11 A2917 RMK AO2 SLP880 T10221106 50002 TSNO
PATO 191353Z AUTO 28009G22KT 10SM CLR M02/M11 A2918 RMK AO2 SLP880 T10171106 TSNO